Time;durP1;ratioP1;P1;durP2;ratioP2;P2;SDS_P1;SDS_P2;PMS_P1;PMS_P2;Temp;Humidity;BMP_temperature;BMP_pressure;BME280_temperature;BME280_humidity;BME280_pressure;Samples;Min_cycle;Max_cycle;Signal;HPM_P1;HPM_P2
2022/06/18 00:01:34;;;;;;;0.00;0.00;;;;;;;17.46;55.18;101623.75;7360405;19;20505;-62
2022/06/18 00:04:29;;;;;;;0.00;0.00;;;;;;;17.48;54.94;101622.78;7358743;19;20038;-64
2022/06/18 00:07:01;;;;;;;0.10;0.10;;;;;;;17.46;54.66;101629.91;7260884;19;2004276;-63
2022/06/18 00:09:37;;;;;;;0.00;0.00;;;;;;;17.45;55.02;101627.31;7363032;19;20018;-61
2022/06/18 00:14:58;;;;;;;0.00;0.00;;;;;;;17.30;54.05;101619.03;7259806;19;2004489;-62
2022/06/18 00:17:23;;;;;;;0.00;0.00;;;;;;;17.36;53.94;101629.38;7362137;19;20011;-64
2022/06/18 00:19:49;;;;;;;0.10;0.10;;;;;;;17.32;53.82;101633.03;7362052;19;20734;-64
2022/06/18 00:22:17;;;;;;;0.00;0.00;;;;;;;17.29;54.06;101643.72;7363162;19;20637;-62
2022/06/18 00:24:44;;;;;;;0.10;0.10;;;;;;;17.24;53.51;101640.38;7362475;19;20034;-62
2022/06/18 00:27:14;;;;;;;0.00;0.00;;;;;;;17.25;53.51;101635.97;7364477;19;20031;-62
2022/06/18 00:29:39;;;;;;;0.03;0.03;;;;;;;17.17;53.72;101628.28;7362275;19;20018;-62
2022/06/18 00:32:06;;;;;;;0.00;0.00;;;;;;;17.20;53.78;101641.41;7358813;19;20066;-64
2022/06/18 00:34:31;;;;;;;0.00;0.00;;;;;;;17.19;53.58;101636.19;7362504;19;20372;-62
2022/06/18 00:36:58;;;;;;;0.00;0.00;;;;;;;17.16;53.45;101637.13;7360462;19;20010;-60
2022/06/18 00:39:24;;;;;;;0.00;0.00;;;;;;;17.09;53.66;101628.59;7360957;19;20017;-61
2022/06/18 00:41:53;;;;;;;0.00;0.00;;;;;;;17.15;53.37;101645.13;7360740;19;20082;-64
2022/06/18 00:44:29;;;;;;;0.10;0.10;;;;;;;17.14;53.74;101641.63;7361177;19;20010;-64
2022/06/18 00:47:16;;;;;;;0.10;0.10;;;;;;;17.10;53.61;101647.91;7362036;19;20022;-61
2022/06/18 00:49:51;;;;;;;0.00;0.00;;;;;;;17.07;54.07;101646.22;7361284;19;20035;-64
2022/06/18 00:52:26;;;;;;;0.00;0.00;;;;;;;17.02;53.31;101648.16;7362167;19;20011;-63
2022/06/18 00:55:01;;;;;;;0.00;0.00;;;;;;;16.98;53.22;101645.69;7361845;19;20363;-64
2022/06/18 00:57:40;;;;;;;0.00;0.00;;;;;;;16.85;53.07;101627.66;7359663;19;20038;-64
2022/06/18 01:00:19;;;;;;;0.00;0.00;;;;;;;16.81;52.83;101631.28;7361274;19;20078;-61
2022/06/18 01:02:47;;;;;;;0.00;0.00;;;;;;;16.81;53.18;101647.13;7361458;19;20006;-63
2022/06/18 01:05:20;;;;;;;0.03;0.03;;;;;;;16.76;53.09;101649.06;7361584;19;20021;-63
2022/06/18 01:07:51;;;;;;;0.08;0.08;;;;;;;16.68;52.85;101658.97;7360982;19;20009;-64
2022/06/18 01:10:26;;;;;;;0.00;0.00;;;;;;;16.64;52.94;101652.06;7358284;19;20014;-64
2022/06/18 01:12:52;;;;;;;0.00;0.00;;;;;;;16.53;53.50;101656.84;7361145;19;20340;-64
2022/06/18 01:15:20;;;;;;;0.00;0.00;;;;;;;16.52;53.10;101661.22;7362539;19;20030;-65
2022/06/18 01:17:47;;;;;;;0.00;0.00;;;;;;;16.49;53.72;101671.03;7368164;19;20022;-63
2022/06/18 01:20:13;;;;;;;0.00;0.00;;;;;;;16.47;53.85;101670.19;7364563;19;20478;-63
2022/06/18 01:23:10;;;;;;;0.00;0.00;;;;;;;16.45;53.69;101672.03;7369150;19;20022;-64
2022/06/18 01:25:36;;;;;;;0.00;0.00;;;;;;;16.40;53.91;101660.75;7263834;19;2004538;-63
2022/06/18 01:28:02;;;;;;;0.00;0.00;;;;;;;16.33;54.11;101654.84;7367662;19;20069;-62
2022/06/18 01:30:34;;;;;;;0.00;0.00;;;;;;;16.33;54.39;101660.97;7364839;19;20110;-62
2022/06/18 01:33:00;;;;;;;0.00;0.00;;;;;;;16.29;54.56;101659.31;7367524;19;20011;-62
2022/06/18 01:35:26;;;;;;;0.00;0.00;;;;;;;16.26;54.35;101664.69;7366448;19;20113;-63
2022/06/18 01:37:51;;;;;;;0.00;0.00;;;;;;;16.23;54.77;101662.16;7367518;19;20399;-62
2022/06/18 01:40:27;;;;;;;0.00;0.00;;;;;;;16.13;54.40;101652.81;7366017;19;20018;-63
2022/06/18 01:42:58;;;;;;;0.00;0.00;;;;;;;16.17;54.71;101659.72;7364781;19;20014;-62
2022/06/18 01:45:29;;;;;;;0.00;0.00;;;;;;;16.16;54.69;101672.91;7367468;19;20104;-64
2022/06/18 01:48:00;;;;;;;0.00;0.00;;;;;;;16.11;54.89;101675.69;7365733;19;20030;-63
2022/06/18 01:50:38;;;;;;;0.03;0.03;;;;;;;16.09;54.87;101672.25;7366787;19;20006;-63
2022/06/18 01:53:12;;;;;;;0.00;0.00;;;;;;;16.02;54.58;101670.72;7365723;19;20734;-63
2022/06/18 01:55:44;;;;;;;0.00;0.00;;;;;;;16.01;54.58;101672.47;7367251;19;20034;-62
2022/06/18 01:58:21;;;;;;;0.00;0.00;;;;;;;15.97;54.50;101684.03;7351242;19;20362;-63
2022/06/18 02:00:51;;;;;;;0.00;0.00;;;;;;;15.93;54.56;101679.75;7360767;19;20039;-64
2022/06/18 02:03:17;;;;;;;0.00;0.00;;;;;;;15.89;55.05;101691.28;7363241;19;20351;-64
2022/06/18 02:05:43;;;;;;;0.10;0.10;;;;;;;15.86;55.02;101694.00;7360325;19;20476;-63
2022/06/18 02:08:11;;;;;;;0.00;0.00;;;;;;;15.82;54.43;101701.13;7361114;19;20010;-64
2022/06/18 02:10:41;;;;;;;0.10;0.10;;;;;;;15.64;54.64;101679.72;7363521;19;20406;-64
2022/06/18 02:13:08;;;;;;;0.00;0.00;;;;;;;15.64;54.98;101688.47;7360628;19;20037;-61
2022/06/18 02:15:39;;;;;;;0.00;0.00;;;;;;;15.61;54.92;101691.16;7362985;19;20021;-64
2022/06/18 02:18:08;;;;;;;0.10;0.10;;;;;;;15.63;55.15;101699.94;7362875;19;20048;-62
2022/06/18 02:20:42;;;;;;;0.10;0.10;;;;;;;15.58;54.66;101701.78;7362575;19;20007;-60
2022/06/18 02:23:07;;;;;;;0.00;0.00;;;;;;;15.48;55.27;101684.50;7363995;19;20027;-63
2022/06/18 02:25:33;;;;;;;0.00;0.00;;;;;;;15.43;55.03;101679.38;7363221;19;20003;-64
2022/06/18 02:28:02;;;;;;;0.03;0.03;;;;;;;15.50;55.06;101693.22;7359833;19;20026;-64
2022/06/18 02:30:34;;;;;;;0.00;0.00;;;;;;;15.46;54.98;101692.47;7362136;19;20985;-61
2022/06/18 02:33:11;;;;;;;0.00;0.00;;;;;;;15.43;54.99;101696.94;7360757;19;20011;-63
2022/06/18 02:35:37;;;;;;;0.00;0.00;;;;;;;15.38;55.22;101697.06;7361140;19;20522;-64
2022/06/18 02:38:13;;;;;;;0.00;0.00;;;;;;;15.32;54.98;101699.84;7364461;19;26065;-64
2022/06/18 02:40:39;;;;;;;0.00;0.00;;;;;;;15.27;55.05;101692.09;7362936;19;20015;-64
2022/06/18 02:43:04;;;;;;;0.00;0.00;;;;;;;15.23;55.17;101695.69;7361118;19;20020;-60
2022/06/18 02:45:31;;;;;;;0.00;0.00;;;;;;;15.06;55.43;101671.59;7362324;19;20542;-63
2022/06/18 02:47:59;;;;;;;0.00;0.00;;;;;;;15.15;55.42;101692.38;7360910;19;20022;-63
2022/06/18 02:50:28;;;;;;;0.00;0.00;;;;;;;15.10;55.34;101689.00;7363884;19;20434;-62
2022/06/18 02:53:00;;;;;;;0.00;0.00;;;;;;;15.05;55.42;101675.09;7362842;19;20010;-62
2022/06/18 02:55:28;;;;;;;0.00;0.00;;;;;;;15.00;55.69;101677.00;7362104;19;20097;-62
2022/06/18 02:58:17;;;;;;;0.00;0.00;;;;;;;14.96;55.33;101670.97;7358760;19;20011;-61
2022/06/18 03:00:46;;;;;;;0.00;0.00;;;;;;;14.90;55.68;101667.59;7362862;19;20007;-61
2022/06/18 03:03:14;;;;;;;0.00;0.00;;;;;;;14.85;55.59;101664.22;7356248;19;20026;-64
2022/06/18 03:05:40;;;;;;;0.00;0.00;;;;;;;14.68;55.88;101644.50;7351099;19;20014;-64
2022/06/18 03:08:06;;;;;;;0.00;0.00;;;;;;;14.75;55.85;101661.84;7363534;19;20066;-64
2022/06/18 03:13:19;;;;;;;0.00;0.00;;;;;;;14.67;56.27;101657.69;7362593;19;20018;-61
2022/06/18 03:15:45;;;;;;;0.00;0.00;;;;;;;14.63;56.54;101649.00;7357158;19;20006;-63
2022/06/18 03:18:11;;;;;;;0.00;0.00;;;;;;;14.60;56.26;101642.94;7364442;19;20014;-63
2022/06/18 03:21:15;;;;;;;0.00;0.00;;;;;;;14.49;55.60;101627.44;7353549;19;20352;-64
2022/06/18 03:23:42;;;;;;;0.00;0.00;;;;;;;14.49;56.54;101644.06;7256365;19;2005322;-61
2022/06/18 03:26:08;;;;;;;0.00;0.00;;;;;;;14.43;56.77;101638.91;7361320;19;20014;-62
2022/06/18 03:28:34;;;;;;;0.00;0.00;;;;;;;14.23;56.72;101625.38;7360829;19;20010;-64
2022/06/18 03:30:59;;;;;;;0.00;0.00;;;;;;;14.27;57.02;101655.94;7365001;19;20022;-63
2022/06/18 03:33:25;;;;;;;0.00;0.00;;;;;;;14.19;57.25;101677.16;7362293;19;20010;-63
2022/06/18 03:35:52;;;;;;;0.00;0.00;;;;;;;14.02;57.29;101674.00;7362921;19;20025;-64
2022/06/18 03:38:18;;;;;;;;;;;;;;;14.04;55.74;101685.38;7360706;19;20025;-63
2022/06/18 03:40:45;;;;;;;0.00;0.00;;;;;;;13.94;57.17;101681.22;7364155;19;19977;-63
2022/06/18 03:43:12;;;;;;;0.00;0.00;;;;;;;13.89;57.50;101669.91;7363095;19;20010;-62
2022/06/18 03:45:43;;;;;;;0.00;0.00;;;;;;;13.85;58.08;101660.38;7363013;19;20156;-63
2022/06/18 03:48:18;;;;;;;0.03;0.03;;;;;;;13.82;57.96;101660.44;7361675;19;20422;-64
2022/06/18 03:50:44;;;;;;;0.00;0.00;;;;;;;13.66;58.38;101650.25;7364302;19;20021;-62
2022/06/18 03:53:09;;;;;;;0.00;0.00;;;;;;;13.69;57.91;101665.94;7364269;19;20014;-63
2022/06/18 03:55:36;;;;;;;0.00;0.00;;;;;;;13.62;58.41;101659.06;7360884;19;20025;-61
2022/06/18 03:58:04;;;;;;;0.00;0.00;;;;;;;13.60;58.35;101663.50;7361207;19;20055;-63
2022/06/18 04:00:29;;;;;;;0.00;0.00;;;;;;;13.56;58.33;101664.47;7363080;19;20013;-62
2022/06/18 04:02:55;;;;;;;0.00;0.00;;;;;;;13.54;58.43;101671.50;7364594;19;20018;-64
2022/06/18 04:05:20;;;;;;;0.00;0.00;;;;;;;13.48;58.29;101662.00;7361030;19;20010;-64
2022/06/18 04:07:46;;;;;;;0.10;0.10;;;;;;;13.34;58.75;101642.16;7362640;19;20042;-62
2022/06/18 04:10:17;;;;;;;0.00;0.00;;;;;;;13.44;58.60;101669.94;7362229;19;20479;-63
2022/06/18 04:12:43;;;;;;;0.00;0.00;;;;;;;13.38;58.67;101665.69;7362999;19;20485;-64
2022/06/18 04:15:09;;;;;;;0.00;0.00;;;;;;;13.34;58.80;101673.66;7364108;19;21547;-64
2022/06/18 04:17:34;;;;;;;0.00;0.00;;;;;;;13.33;59.42;101674.50;7360190;19;20023;-62
2022/06/18 04:20:00;;;;;;;0.00;0.00;;;;;;;13.30;58.86;101687.72;7362827;19;20006;-63
2022/06/18 04:22:25;;;;;;;0.00;0.00;;;;;;;13.27;59.66;101687.75;7361164;19;20010;-63
2022/06/18 04:24:51;;;;;;;0.00;0.00;;;;;;;13.12;59.53;101650.38;7362438;19;20474;-63
2022/06/18 04:27:16;;;;;;;0.00;0.00;;;;;;;13.19;59.49;101669.50;7359540;19;20776;-64
2022/06/18 04:29:42;;;;;;;0.00;0.00;;;;;;;13.16;59.28;101665.16;7362536;19;20006;-64
2022/06/18 04:32:07;;;;;;;0.00;0.00;;;;;;;13.10;59.94;101675.78;7361703;19;20028;-64
2022/06/18 04:34:32;;;;;;;0.00;0.00;;;;;;;13.07;59.80;101675.81;7360325;19;20003;-64
2022/06/18 04:36:58;;;;;;;0.00;0.00;;;;;;;13.06;59.96;101681.09;7362311;19;20006;-63
2022/06/18 04:39:24;;;;;;;0.00;0.00;;;;;;;13.02;59.50;101672.41;7361275;19;20665;-63
2022/06/18 04:41:50;;;;;;;0.00;0.00;;;;;;;12.95;59.92;101670.78;7357862;19;20528;-62
2022/06/18 04:44:15;;;;;;;0.03;0.03;;;;;;;12.96;60.38;101667.28;7362512;19;20014;-63
2022/06/18 04:46:41;;;;;;;0.00;0.00;;;;;;;12.93;60.34;101669.97;7359616;19;20018;-64
2022/06/18 04:49:06;;;;;;;0.00;0.00;;;;;;;12.91;60.45;101677.84;7361979;19;20014;-62
2022/06/18 04:51:31;;;;;;;0.10;0.10;;;;;;;12.91;60.30;101695.31;7360669;19;21708;-60
2022/06/18 04:53:57;;;;;;;0.00;0.00;;;;;;;12.90;60.51;101683.13;7362710;19;20016;-61
2022/06/18 04:56:22;;;;;;;0.00;0.00;;;;;;;12.73;60.58;101660.66;7360769;19;20034;-61
2022/06/18 04:58:48;;;;;;;0.00;0.00;;;;;;;12.83;60.58;101665.78;7362172;19;20022;-62
2022/06/18 05:01:17;;;;;;;0.00;0.00;;;;;;;12.85;60.68;101669.22;7359036;19;20416;-60
2022/06/18 05:03:42;;;;;;;0.00;0.00;;;;;;;12.85;60.74;101669.22;7360684;19;20017;-63
2022/06/18 05:06:08;;;;;;;0.00;0.00;;;;;;;12.85;60.95;101674.47;7360503;19;20093;-62
2022/06/18 05:08:33;;;;;;;0.00;0.00;;;;;;;12.83;60.70;101684.13;7360431;19;20006;-64
2022/06/18 05:10:59;;;;;;;0.00;0.00;;;;;;;12.83;61.12;101687.59;7358644;19;20848;-63
2022/06/18 05:13:24;;;;;;;0.00;0.00;;;;;;;12.83;61.23;101676.25;7361309;19;20007;-64
2022/06/18 05:15:53;;;;;;;0.00;0.00;;;;;;;12.76;61.32;101670.22;7358859;19;20769;-64
2022/06/18 05:18:20;;;;;;;0.00;0.00;;;;;;;12.86;61.37;101670.94;7360860;19;20048;-62
2022/06/18 05:20:51;;;;;;;0.00;0.00;;;;;;;12.89;60.71;101682.25;7362742;19;20027;-64
2022/06/18 05:23:17;;;;;;;0.00;0.00;;;;;;;12.93;61.34;101696.19;7359419;19;20014;-61
2022/06/18 05:25:44;;;;;;;0.00;0.00;;;;;;;12.97;61.34;101689.97;7361721;19;20082;-64
2022/06/18 05:28:11;;;;;;;0.10;0.10;;;;;;;13.03;61.50;101689.00;7360087;19;20038;-63
2022/06/18 05:30:36;;;;;;;0.00;0.00;;;;;;;13.07;61.37;101686.31;7359105;19;20494;-62
2022/06/18 05:33:02;;;;;;;0.00;0.00;;;;;;;12.98;61.52;101666.38;7358872;19;20010;-63
2022/06/18 05:35:27;;;;;;;0.00;0.00;;;;;;;13.17;61.31;101681.75;7357828;19;20027;-62
2022/06/18 05:37:54;;;;;;;0.00;0.00;;;;;;;13.21;61.54;101684.34;7359961;19;20125;-62
2022/06/18 05:40:20;;;;;;;0.00;0.00;;;;;;;13.27;61.15;101682.50;7358726;19;20026;-63
2022/06/18 05:42:46;;;;;;;0.00;0.00;;;;;;;13.31;61.16;101685.03;7359291;19;20014;-63
2022/06/18 05:45:12;;;;;;;0.00;0.00;;;;;;;13.36;61.41;101687.59;7361625;19;20820;-64
2022/06/18 05:47:39;;;;;;;0.00;0.00;;;;;;;13.40;61.30;101699.75;7359372;19;20011;-63
2022/06/18 05:50:07;;;;;;;0.00;0.00;;;;;;;13.45;61.32;101708.41;7360354;19;20493;-63
2022/06/18 05:52:32;;;;;;;0.00;0.00;;;;;;;13.49;61.03;101704.84;7358054;19;20014;-63
2022/06/18 05:54:58;;;;;;;0.00;0.00;;;;;;;13.55;61.10;101707.34;7358579;19;20011;-64
2022/06/18 05:57:24;;;;;;;0.00;0.00;;;;;;;13.57;61.29;101700.28;7355991;19;20053;-62
2022/06/18 05:59:49;;;;;;;0.00;0.00;;;;;;;13.64;60.86;101720.31;7354127;19;20344;-64
2022/06/18 06:02:17;;;;;;;0.00;0.00;;;;;;;13.62;61.18;101722.06;7363928;19;20023;-63
2022/06/18 06:04:43;;;;;;;0.00;0.00;;;;;;;13.70;61.01;101730.66;7362769;19;20030;-61
2022/06/18 06:07:13;;;;;;;0.00;0.00;;;;;;;13.62;60.76;101701.06;7365533;19;20011;-62
2022/06/18 06:12:22;;;;;;;0.00;0.00;;;;;;;13.82;60.98;101702.44;7364648;19;20014;-64
2022/06/18 06:14:48;;;;;;;0.00;0.00;;;;;;;13.86;60.75;101704.13;7362116;19;20021;-64
2022/06/18 06:17:24;;;;;;;0.00;0.00;;;;;;;13.82;60.29;101686.69;7364367;19;20025;-61
2022/06/18 06:19:50;;;;;;;0.00;0.00;;;;;;;13.95;60.35;101709.19;7363404;19;20017;-61
2022/06/18 06:22:15;;;;;;;0.00;0.00;;;;;;;13.87;60.45;101692.72;7364316;19;20014;-64
2022/06/18 06:24:41;;;;;;;0.00;0.00;;;;;;;14.01;60.37;101714.31;7363866;19;20018;-64
2022/06/18 06:27:08;;;;;;;0.00;0.00;;;;;;;14.02;60.19;101710.78;7362361;19;20038;-63
2022/06/18 06:29:33;;;;;;;0.00;0.00;;;;;;;14.06;60.29;101722.97;7364878;19;20685;-64
2022/06/18 06:31:59;;;;;;;0.00;0.00;;;;;;;14.08;60.57;101720.28;7362424;19;20507;-63
2022/06/18 06:34:24;;;;;;;0.00;0.00;;;;;;;14.11;60.14;101738.63;7362776;19;20010;-64
2022/06/18 06:36:51;;;;;;;0.00;0.00;;;;;;;14.15;60.29;101728.03;7359580;19;20089;-62
2022/06/18 06:39:16;;;;;;;0.00;0.00;;;;;;;14.19;60.34;101729.69;7361193;19;20097;-63
2022/06/18 06:41:43;;;;;;;0.00;0.00;;;;;;;14.24;60.38;101735.72;7361702;19;20152;-64
2022/06/18 06:44:08;;;;;;;0.00;0.00;;;;;;;14.30;60.37;101739.09;7362671;19;20014;-63
2022/06/18 06:46:34;;;;;;;0.00;0.00;;;;;;;14.35;60.40;101739.88;7360475;19;20010;-64
2022/06/18 06:48:59;;;;;;;0.00;0.00;;;;;;;14.40;60.38;101728.38;7364616;19;20014;-62
2022/06/18 06:51:27;;;;;;;0.05;0.05;;;;;;;14.33;60.30;101720.63;7364830;19;20053;-64
2022/06/18 06:53:53;;;;;;;0.00;0.00;;;;;;;14.53;60.57;101744.75;7365422;19;20021;-62
2022/06/18 06:59:05;;;;;;;0.00;0.00;;;;;;;14.65;60.09;101726.06;7261929;19;2004612;-64
2022/06/18 07:01:31;;;;;;;0.00;0.00;;;;;;;14.73;59.99;101721.47;7365909;19;20474;-63
2022/06/18 07:03:56;;;;;;;0.00;0.00;;;;;;;14.82;60.22;101715.16;7366093;19;20624;-64
2022/06/18 07:06:22;;;;;;;0.00;0.00;;;;;;;14.90;59.84;101718.47;7364632;19;20007;-63
2022/06/18 07:08:47;;;;;;;0.00;0.00;;;;;;;15.00;59.46;101719.09;7360591;19;20002;-64
2022/06/18 07:11:14;;;;;;;0.00;0.00;;;;;;;15.09;59.28;101737.28;7356225;19;20006;-63
2022/06/18 07:13:39;;;;;;;0.10;0.10;;;;;;;15.06;59.27;101700.53;7361428;19;20014;-64
2022/06/18 07:16:05;;;;;;;0.00;0.00;;;;;;;15.20;58.82;101716.81;7357784;19;20019;-61
2022/06/18 07:18:35;;;;;;;0.00;0.00;;;;;;;15.23;58.71;101690.44;7362591;19;20018;-64
2022/06/18 07:21:02;;;;;;;0.10;0.10;;;;;;;15.40;58.73;101715.44;7361990;19;20021;-62
2022/06/18 07:23:28;;;;;;;0.00;0.00;;;;;;;15.47;58.67;101719.66;7362076;19;20085;-62
2022/06/18 07:25:54;;;;;;;0.00;0.00;;;;;;;15.54;58.18;101726.47;7362912;19;20070;-63
2022/06/18 07:28:20;;;;;;;0.00;0.00;;;;;;;15.61;58.57;101722.75;7359670;19;20025;-63
2022/06/18 07:30:49;;;;;;;0.00;0.00;;;;;;;15.68;58.75;101719.09;7360197;19;21074;-64
2022/06/18 07:33:21;;;;;;;0.00;0.00;;;;;;;15.78;58.67;101720.56;7359986;19;20041;-64
2022/06/18 07:35:47;;;;;;;0.00;0.00;;;;;;;15.89;57.87;101722.03;7358650;19;20003;-64
2022/06/18 07:38:12;;;;;;;0.00;0.00;;;;;;;15.97;57.66;101715.66;7363453;19;20009;-64
2022/06/18 07:40:48;;;;;;;0.00;0.00;;;;;;;16.13;57.68;101721.31;7360499;19;20023;-64
2022/06/18 07:43:35;;;;;;;0.00;0.00;;;;;;;16.28;57.45;101720.00;7361301;19;20018;-62
2022/06/18 07:46:03;;;;;;;0.00;0.00;;;;;;;16.40;57.47;101713.50;7361286;19;20019;-63
2022/06/18 07:48:28;;;;;;;0.00;0.00;;;;;;;16.49;57.04;101707.94;7360983;19;20022;-63
2022/06/18 07:50:54;;;;;;;0.00;0.00;;;;;;;16.63;55.49;101725.97;7362569;19;20747;-63
2022/06/18 07:53:22;;;;;;;0.00;0.00;;;;;;;16.78;55.47;101741.34;7361530;19;20470;-64
2022/06/18 07:55:49;;;;;;;0.00;0.00;;;;;;;16.85;54.85;101738.44;7360478;19;20010;-64
2022/06/18 07:58:15;;;;;;;0.00;0.00;;;;;;;16.84;54.50;101726.16;7359742;19;20017;-64
2022/06/18 08:00:42;;;;;;;0.10;0.10;;;;;;;16.93;54.45;101734.69;7362398;19;20014;-64
2022/06/18 08:03:09;;;;;;;0.05;0.05;;;;;;;17.08;54.38;101734.19;7359278;19;20007;-62
2022/06/18 08:05:35;;;;;;;0.03;0.03;;;;;;;17.15;54.18;101725.16;7360215;19;20022;-64
2022/06/18 08:08:01;;;;;;;0.03;0.03;;;;;;;17.26;54.30;101741.50;7360343;19;20016;-64
2022/06/18 08:10:27;;;;;;;0.03;0.03;;;;;;;17.39;53.38;101744.59;7359693;19;20006;-64
2022/06/18 08:12:53;;;;;;;0.10;0.10;;;;;;;17.43;53.19;101737.41;7361710;19;20028;-64
2022/06/18 08:15:18;;;;;;;0.05;0.05;;;;;;;17.54;52.80;101744.06;7360225;19;21763;-64
2022/06/18 08:17:44;;;;;;;0.10;0.10;;;;;;;17.58;52.49;101743.00;7358742;19;20023;-63
2022/06/18 08:20:11;;;;;;;0.10;0.10;;;;;;;17.60;52.77;101741.19;7361147;19;20018;-64
2022/06/18 08:22:42;;;;;;;0.00;0.00;;;;;;;17.65;52.49;101746.31;7360478;19;20393;-62
2022/06/18 08:25:11;;;;;;;0.10;0.10;;;;;;;17.69;52.76;101741.75;7355245;19;20006;-64
2022/06/18 08:27:37;;;;;;;0.00;0.00;;;;;;;17.69;53.05;101747.94;7354278;19;20085;-64
2022/06/18 08:30:04;;;;;;;0.10;0.10;;;;;;;17.68;52.59;101735.63;7358224;19;20377;-64
2022/06/18 08:32:30;;;;;;;0.00;0.00;;;;;;;17.78;52.96;101730.91;7360306;19;20094;-63
2022/06/18 08:34:55;;;;;;;0.00;0.00;;;;;;;17.86;51.53;101724.44;7360381;19;20099;-64
2022/06/18 08:37:21;;;;;;;0.10;0.10;;;;;;;17.87;51.47;101720.00;7359593;19;20406;-64
2022/06/18 08:39:47;;;;;;;0.03;0.03;;;;;;;17.96;51.68;101719.66;7361340;19;20015;-64
2022/06/18 08:42:18;;;;;;;0.00;0.00;;;;;;;18.03;50.91;101713.22;7362056;19;20006;-65
2022/06/18 08:45:01;;;;;;;0.00;0.00;;;;;;;18.17;52.31;101718.00;7359040;19;20007;-62
2022/06/18 08:47:46;;;;;;;0.08;0.08;;;;;;;18.25;52.15;101718.56;7348532;19;20007;-62
2022/06/18 08:50:29;;;;;;;0.10;0.10;;;;;;;18.37;51.85;101719.88;7363642;19;20009;-64
2022/06/18 08:53:02;;;;;;;0.10;0.10;;;;;;;18.40;50.46;101725.91;7359236;19;20006;-63
2022/06/18 08:55:53;;;;;;;0.00;0.00;;;;;;;18.51;51.71;101698.19;7355058;19;20013;-64
2022/06/18 08:58:41;;;;;;;0.10;0.10;;;;;;;18.79;51.32;101711.19;7355174;19;20003;-64
2022/06/18 09:01:27;;;;;;;0.00;0.00;;;;;;;18.99;51.09;101705.06;7359607;19;20007;-63
2022/06/18 09:04:27;;;;;;;0.00;0.00;;;;;;;19.18;50.91;101703.38;7359557;19;20014;-62
2022/06/18 09:07:20;;;;;;;0.10;0.10;;;;;;;19.27;50.59;101681.78;7250226;19;2004231;-64
2022/06/18 09:09:57;;;;;;;0.00;0.00;;;;;;;19.47;48.40;101702.13;7356265;19;20018;-64
2022/06/18 09:12:31;;;;;;;0.10;0.10;;;;;;;19.57;47.48;101699.94;7357307;19;20007;-64
2022/06/18 09:15:03;;;;;;;0.00;0.00;;;;;;;19.64;47.55;101712.84;7355673;19;20027;-60
2022/06/18 09:17:57;;;;;;;0.10;0.10;;;;;;;19.81;48.93;101724.47;7359301;19;20560;-64
2022/06/18 09:20:31;;;;;;;0.00;0.00;;;;;;;19.86;47.18;101722.47;7257681;19;2004443;-64
2022/06/18 09:23:04;;;;;;;0.05;0.05;;;;;;;19.93;46.75;101727.44;7363452;19;20006;-62
2022/06/18 09:25:38;;;;;;;0.00;0.00;;;;;;;20.03;46.86;101737.66;7359993;19;20010;-64
2022/06/18 09:28:12;;;;;;;0.00;0.00;;;;;;;20.07;46.59;101737.44;7362056;19;20017;-64
2022/06/18 09:30:43;;;;;;;0.00;0.00;;;;;;;20.12;45.07;101742.50;7361297;19;20018;-64
2022/06/18 09:33:18;;;;;;;0.00;0.00;;;;;;;20.15;45.44;101745.88;7361744;19;20031;-64
2022/06/18 09:36:06;;;;;;;0.00;0.00;;;;;;;20.21;46.63;101745.59;7361241;19;20019;-64
2022/06/18 09:38:33;;;;;;;0.00;0.00;;;;;;;20.22;44.69;101751.75;7364495;19;20037;-64
2022/06/18 09:41:04;;;;;;;;;;;;;;;20.32;48.73;101753.03;7366407;19;20010;-64
2022/06/18 09:44:10;;;;;;;0.10;0.10;;;;;;;20.31;46.34;101743.38;7364347;19;19947;-63
2022/06/18 09:47:00;;;;;;;0.08;0.08;;;;;;;20.31;46.60;101740.72;7267461;19;2004364;-64
2022/06/18 09:49:31;;;;;;;0.00;0.00;;;;;;;20.20;44.03;101741.22;7368163;19;20030;-62
2022/06/18 09:52:07;;;;;;;0.00;0.00;;;;;;;20.21;44.21;101742.09;7370350;19;20018;-64
2022/06/18 09:54:39;;;;;;;0.00;0.00;;;;;;;20.21;44.38;101744.72;7368174;19;20006;-64
2022/06/18 09:57:05;;;;;;;0.10;0.10;;;;;;;20.13;42.90;101746.91;7367475;19;20055;-62
2022/06/18 09:59:39;;;;;;;0.00;0.00;;;;;;;20.03;43.80;101729.69;7360879;19;20738;-64
2022/06/18 10:02:27;;;;;;;0.10;0.10;;;;;;;20.09;45.07;101743.53;7369018;19;20699;-64
2022/06/18 10:07:43;;;;;;;0.10;0.10;;;;;;;19.89;43.24;101717.91;7368376;19;20021;-64
2022/06/18 10:10:14;;;;;;;0.10;0.10;;;;;;;19.92;44.17;101723.09;7368718;19;20026;-64
2022/06/18 10:12:53;;;;;;;0.00;0.00;;;;;;;20.00;45.10;101725.38;7366760;19;20026;-62
2022/06/18 10:15:20;;;;;;;0.10;0.10;;;;;;;19.98;43.82;101721.94;7368954;19;20014;-64
2022/06/18 10:18:12;;;;;;;0.00;0.00;;;;;;;20.07;45.42;101712.69;7367239;19;20093;-64
2022/06/18 10:21:02;;;;;;;0.00;0.00;;;;;;;20.13;45.61;101709.78;7368882;19;20025;-64
2022/06/18 10:23:52;;;;;;;0.00;0.00;;;;;;;20.23;45.85;101705.75;7369486;19;20027;-64
2022/06/18 10:26:44;;;;;;;0.00;0.00;;;;;;;20.33;45.92;101717.66;7368786;19;20454;-65
2022/06/18 10:29:43;;;;;;;0.00;0.00;;;;;;;20.41;45.35;101712.81;7266179;19;2004396;-64
2022/06/18 10:32:37;;;;;;;0.10;0.10;;;;;;;20.51;45.28;101704.47;7265124;19;2004184;-63
2022/06/18 10:35:25;;;;;;;0.00;0.00;;;;;;;20.49;43.85;101709.00;7266724;19;2004552;-64
2022/06/18 10:38:18;;;;;;;0.00;0.00;;;;;;;20.58;45.19;101705.88;7364930;19;20018;-64
2022/06/18 10:40:58;;;;;;;0.10;0.10;;;;;;;20.62;44.53;101707.44;7266924;19;2004611;-65
2022/06/18 10:43:30;;;;;;;0.10;0.10;;;;;;;20.64;44.58;101713.56;7367610;19;20485;-65
2022/06/18 10:46:01;;;;;;;0.00;0.00;;;;;;;20.67;44.20;101711.59;7369142;19;20370;-63
2022/06/18 10:48:31;;;;;;;0.10;0.10;;;;;;;20.71;43.83;101707.88;7365484;19;20086;-61
2022/06/18 10:50:58;;;;;;;0.00;0.00;;;;;;;20.75;43.86;101697.97;7369108;19;20007;-64
2022/06/18 10:53:33;;;;;;;0.10;0.10;;;;;;;20.87;43.78;101707.97;7367444;19;20038;-64
2022/06/18 10:56:14;;;;;;;0.10;0.10;;;;;;;20.89;44.85;101689.31;7367582;19;20073;-63
2022/06/18 10:58:52;;;;;;;0.10;0.10;;;;;;;21.03;43.61;101696.56;7368134;19;20769;-62
2022/06/18 11:01:34;;;;;;;0.03;0.03;;;;;;;21.05;43.40;101702.69;7366881;19;20772;-64
2022/06/18 11:04:05;;;;;;;0.00;0.00;;;;;;;21.11;43.05;101697.91;7368315;19;20353;-64
2022/06/18 11:06:31;;;;;;;0.10;0.10;;;;;;;21.12;42.92;101685.50;7366341;19;20022;-64
2022/06/18 11:09:00;;;;;;;0.00;0.00;;;;;;;21.18;42.89;101691.34;7368524;19;20006;-64
2022/06/18 11:11:31;;;;;;;0.10;0.10;;;;;;;21.23;42.70;101694.59;7367806;19;20577;-61
2022/06/18 11:14:18;;;;;;;0.00;0.00;;;;;;;21.31;43.94;101707.56;7366640;19;20010;-60
2022/06/18 11:16:45;;;;;;;0.10;0.10;;;;;;;21.28;42.87;101712.97;7366519;19;20010;-64
2022/06/18 11:19:18;;;;;;;;;;;;;;;21.42;44.94;101726.44;7367090;19;20457;-64
2022/06/18 11:21:44;;;;;;;0.05;0.05;;;;;;;21.34;41.43;101735.75;7367880;19;19914;-64
2022/06/18 11:24:13;;;;;;;0.10;0.10;;;;;;;21.34;42.16;101741.94;7367291;19;19998;-64
2022/06/18 11:26:51;;;;;;;0.08;0.08;;;;;;;21.30;41.45;101751.00;7365503;19;20010;-64
2022/06/18 11:29:32;;;;;;;0.00;0.00;;;;;;;21.30;42.56;101758.97;7366897;19;20886;-59
2022/06/18 11:32:00;;;;;;;0.10;0.10;;;;;;;21.20;41.61;101774.47;7367298;19;20015;-61
2022/06/18 11:34:32;;;;;;;0.00;0.00;;;;;;;21.15;41.25;101771.19;7366107;19;20006;-64
2022/06/18 11:36:59;;;;;;;0.00;0.00;;;;;;;21.05;41.65;101771.72;7364880;19;20034;-64
2022/06/18 11:39:39;;;;;;;0.10;0.10;;;;;;;21.01;42.95;101767.50;7368529;19;20025;-63
2022/06/18 11:42:20;;;;;;;0.00;0.00;;;;;;;20.93;42.16;101775.81;7366350;19;20010;-63
2022/06/18 11:44:52;;;;;;;0.00;0.00;;;;;;;20.87;41.96;101777.00;7366513;19;20006;-64
2022/06/18 11:47:24;;;;;;;0.00;0.00;;;;;;;20.84;42.49;101784.28;7366822;19;20038;-62
2022/06/18 11:50:14;;;;;;;0.03;0.03;;;;;;;20.83;43.10;101780.72;7367879;19;20018;-64
2022/06/18 11:52:58;;;;;;;0.10;0.10;;;;;;;20.73;41.95;101768.84;7366033;19;20011;-64
2022/06/18 11:55:26;;;;;;;0.00;0.00;;;;;;;20.65;41.97;101771.00;7367419;19;20017;-64